Time;durP1;ratioP1;P1;durP2;ratioP2;P2;SDS_P1;SDS_P2;PMS_P1;PMS_P2;Temp;Humidity;BMP_temperature;BMP_pressure;BME280_temperature;BME280_humidity;BME280_pressure;Samples;Min_cycle;Max_cycle;Signal;HPM_P1;HPM_P2
2023/04/09 00:00:11;;;;;;;0.20;0.20;;;;;;;;;;7400175;19;20150;-91
2023/04/09 00:02:38;;;;;;;0.43;0.43;;;;;;;;;;7398594;19;20133;-91
2023/04/09 00:05:06;;;;;;;0.30;0.30;;;;;;;;;;7401543;19;20140;-91
2023/04/09 00:07:33;;;;;;;0.30;0.30;;;;;;;;;;7399062;19;20468;-91
2023/04/09 00:09:59;;;;;;;0.50;0.50;;;;;;;;;;7400800;19;20141;-93
2023/04/09 00:12:26;;;;;;;0.37;0.37;;;;;;;;;;7396936;19;20489;-92
2023/04/09 00:14:54;;;;;;;0.60;0.60;;;;;;;;;;7398775;19;20133;-92
2023/04/09 00:17:21;;;;;;;0.77;0.77;;;;;;;;;;7398065;19;20137;-91
2023/04/09 00:19:47;;;;;;;0.30;0.30;;;;;;;;;;7395423;19;20140;-92
2023/04/09 00:22:14;;;;;;;1.10;1.10;;;;;;;;;;7394277;19;20165;-93
2023/04/09 00:24:41;;;;;;;0.33;0.33;;;;;;;;;;7398025;19;20173;-91
2023/04/09 00:27:07;;;;;;;0.90;0.90;;;;;;;;;;7415235;19;20144;-94
2023/04/09 00:29:34;;;;;;;1.37;0.90;;;;;;;;;;7427827;19;20161;-94
2023/04/09 00:32:01;;;;;;;0.50;0.50;;;;;;;;;;7426240;19;20153;-96
2023/04/09 00:34:28;;;;;;;0.50;0.50;;;;;;;;;;7427045;19;20129;-95
2023/04/09 00:36:54;;;;;;;0.50;0.50;;;;;;;;;;7425992;19;20133;-96
2023/04/09 00:39:21;;;;;;;1.07;1.07;;;;;;;;;;7426831;19;20137;-95
2023/04/09 00:41:47;;;;;;;1.23;1.13;;;;;;;;;;7427159;19;20173;-95
2023/04/09 00:44:14;;;;;;;0.30;0.30;;;;;;;;;;7426509;19;20153;-94
2023/04/09 00:46:41;;;;;;;0.80;0.80;;;;;;;;;;7414071;19;20133;-93
2023/04/09 00:49:07;;;;;;;1.23;1.23;;;;;;;;;;7394618;19;20629;-93
2023/04/09 00:51:35;;;;;;;0.30;0.30;;;;;;;;;;7408630;19;20177;-94
2023/04/09 00:54:02;;;;;;;0.60;0.60;;;;;;;;;;7394825;19;20137;-93
2023/04/09 00:56:28;;;;;;;0.53;0.53;;;;;;;;;;7394802;19;20129;-93
2023/04/09 00:58:55;;;;;;;1.50;1.07;;;;;;;;;;7395834;19;20168;-92
2023/04/09 01:01:22;;;;;;;1.17;1.17;;;;;;;;;;7393659;19;20617;-94
2023/04/09 01:03:49;;;;;;;0.50;0.50;;;;;;;;;;7396682;19;20239;-93
2023/04/09 01:06:38;;;;;;;0.70;0.70;;;;;;;;;;7397479;19;20125;-93
2023/04/09 01:09:27;;;;;;;0.30;0.30;;;;;;;;;;7391990;19;20165;-94
2023/04/09 01:12:13;;;;;;;2.17;1.50;;;;;;;;;;7394550;19;20153;-93
2023/04/09 01:15:06;;;;;;;0.40;0.40;;;;;;;;;;7393377;19;20140;-92
2023/04/09 01:17:50;;;;;;;0.30;0.30;;;;;;;;;;7394532;19;20147;-93
2023/04/09 01:20:41;;;;;;;0.30;0.30;;;;;;;;;;7393841;19;20470;-92
2023/04/09 01:23:24;;;;;;;0.40;0.40;;;;;;;;;;7394972;19;20157;-93
2023/04/09 01:26:02;;;;;;;0.30;0.30;;;;;;;;;;7392562;19;20161;-93
2023/04/09 01:28:45;;;;;;;1.13;1.13;;;;;;;;;;7396474;19;20161;-94
2023/04/09 01:31:14;;;;;;;1.00;0.70;;;;;;;;;;7393391;19;20508;-94
2023/04/09 01:33:41;;;;;;;0.27;0.27;;;;;;;;;;7392742;19;20148;-92
2023/04/09 01:36:08;;;;;;;0.30;0.30;;;;;;;;;;7394642;19;20140;-93
2023/04/09 01:38:36;;;;;;;0.20;0.20;;;;;;;;;;7393923;19;20141;-94
2023/04/09 01:41:03;;;;;;;0.20;0.20;;;;;;;;;;7394172;19;20645;-91
2023/04/09 01:43:32;;;;;;;0.30;0.30;;;;;;;;;;7394483;19;20153;-89
2023/04/09 01:46:00;;;;;;;0.93;0.77;;;;;;;;;;7393464;19;20157;-93
2023/04/09 01:48:29;;;;;;;1.83;1.73;;;;;;;;;;7394832;19;20125;-94
2023/04/09 01:50:57;;;;;;;0.30;0.30;;;;;;;;;;7394071;19;20173;-94
2023/04/09 01:53:27;;;;;;;0.20;0.20;;;;;;;;;;7394431;19;20162;-93
2023/04/09 01:55:57;;;;;;;1.80;1.50;;;;;;;;;;7395189;19;20125;-93
2023/04/09 01:58:24;;;;;;;0.30;0.30;;;;;;;;;;7394978;19;20158;-92
2023/04/09 02:00:56;;;;;;;1.20;1.10;;;;;;;;;;7392422;19;20152;-92
2023/04/09 02:03:25;;;;;;;0.43;0.43;;;;;;;;;;7392183;19;20137;-93
2023/04/09 02:05:55;;;;;;;0.20;0.20;;;;;;;;;;7394862;19;20161;-92
2023/04/09 02:08:23;;;;;;;0.20;0.20;;;;;;;;;;7392891;19;20641;-92
2023/04/09 02:10:57;;;;;;;0.40;0.40;;;;;;;;;;7392835;19;20169;-91
2023/04/09 02:13:25;;;;;;;0.20;0.20;;;;;;;;;;7391606;19;20161;-92
2023/04/09 02:15:53;;;;;;;1.23;0.90;;;;;;;;;;7392059;19;20144;-92
2023/04/09 02:18:27;;;;;;;0.20;0.20;;;;;;;;;;7392240;19;20155;-91
2023/04/09 02:20:56;;;;;;;0.20;0.20;;;;;;;;;;7390100;19;20168;-92
2023/04/09 02:23:23;;;;;;;0.20;0.20;;;;;;;;;;7392661;19;20165;-92
2023/04/09 02:25:51;;;;;;;1.33;1.07;;;;;;;;;;7393083;19;20161;-93
2023/04/09 02:28:18;;;;;;;0.20;0.20;;;;;;;;;;7393415;19;20133;-92
2023/04/09 02:30:45;;;;;;;0.30;0.30;;;;;;;;;;7391472;19;20262;-93
2023/04/09 02:33:11;;;;;;;0.30;0.30;;;;;;;;;;7393586;19;20216;-93
2023/04/09 02:35:38;;;;;;;0.20;0.20;;;;;;;;;;7393520;19;20133;-92
2023/04/09 02:38:05;;;;;;;0.30;0.30;;;;;;;;;;7393117;19;20287;-92
2023/04/09 02:40:31;;;;;;;0.20;0.20;;;;;;;;;;7390923;19;20156;-92
2023/04/09 02:42:58;;;;;;;1.33;1.23;;;;;;;;;;7392551;19;20495;-92
2023/04/09 02:45:24;;;;;;;1.00;0.90;;;;;;;;;;7394100;19;20476;-93
2023/04/09 02:47:51;;;;;;;0.50;0.50;;;;;;;;;;7398375;19;20205;-94
2023/04/09 02:50:18;;;;;;;0.20;0.20;;;;;;;;;;7394373;19;20133;-93
2023/04/09 02:52:46;;;;;;;0.70;0.70;;;;;;;;;;7395400;19;20125;-93
2023/04/09 02:55:13;;;;;;;0.43;0.43;;;;;;;;;;7395923;19;20133;-94
2023/04/09 02:57:40;;;;;;;1.30;1.30;;;;;;;;;;7399630;19;20129;-93
2023/04/09 03:00:08;;;;;;;0.30;0.30;;;;;;;;;;7398728;19;20513;-93
2023/04/09 03:02:34;;;;;;;0.40;0.40;;;;;;;;;;7395963;19;20601;-94
2023/04/09 03:05:02;;;;;;;0.60;0.60;;;;;;;;;;7398702;19;20153;-93
2023/04/09 03:07:28;;;;;;;0.53;0.53;;;;;;;;;;7396966;19;20161;-94
2023/04/09 03:09:55;;;;;;;0.40;0.40;;;;;;;;;;7398851;19;20158;-91
2023/04/09 03:12:21;;;;;;;0.30;0.30;;;;;;;;;;7396503;19;20193;-93
2023/04/09 03:14:48;;;;;;;0.30;0.30;;;;;;;;;;7395853;19;20149;-94
2023/04/09 03:17:15;;;;;;;0.20;0.20;;;;;;;;;;7397761;19;20125;-94
2023/04/09 03:19:41;;;;;;;0.30;0.30;;;;;;;;;;7397132;19;20141;-93
2023/04/09 03:22:08;;;;;;;0.20;0.20;;;;;;;;;;7395252;19;20519;-93
2023/04/09 03:24:35;;;;;;;0.33;0.33;;;;;;;;;;7397683;19;20161;-94
2023/04/09 03:27:01;;;;;;;0.40;0.40;;;;;;;;;;7396111;19;20136;-92
2023/04/09 03:29:28;;;;;;;0.20;0.20;;;;;;;;;;7394421;19;20138;-92
2023/04/09 03:31:55;;;;;;;0.70;0.70;;;;;;;;;;7396209;19;20688;-92
2023/04/09 03:34:23;;;;;;;0.37;0.37;;;;;;;;;;7404346;19;20489;-93
2023/04/09 03:36:49;;;;;;;0.33;0.33;;;;;;;;;;7405451;19;20157;-93
2023/04/09 03:39:16;;;;;;;0.20;0.20;;;;;;;;;;7405057;19;20137;-92
2023/04/09 03:41:43;;;;;;;0.20;0.20;;;;;;;;;;7402680;19;20209;-93
2023/04/09 03:44:09;;;;;;;0.30;0.30;;;;;;;;;;7406033;19;20164;-94
2023/04/09 03:46:37;;;;;;;0.30;0.30;;;;;;;;;;7404341;19;20126;-92
2023/04/09 03:49:04;;;;;;;0.30;0.30;;;;;;;;;;7406003;19;20145;-94
2023/04/09 03:51:31;;;;;;;0.20;0.20;;;;;;;;;;7402672;19;20183;-92
2023/04/09 03:53:57;;;;;;;0.53;0.53;;;;;;;;;;7402789;19;20133;-93
2023/04/09 03:56:24;;;;;;;0.83;0.83;;;;;;;;;;7402787;19;20133;-94
2023/04/09 03:58:51;;;;;;;0.77;0.77;;;;;;;;;;7401996;19;20164;-94
2023/04/09 04:01:18;;;;;;;0.20;0.20;;;;;;;;;;7398272;19;20145;-93
2023/04/09 04:03:45;;;;;;;0.20;0.20;;;;;;;;;;7399078;19;20137;-93
2023/04/09 04:06:11;;;;;;;0.63;0.63;;;;;;;;;;7398445;19;20133;-93
2023/04/09 04:08:38;;;;;;;0.20;0.20;;;;;;;;;;7398863;19;20459;-92
2023/04/09 04:11:05;;;;;;;0.30;0.30;;;;;;;;;;7395028;19;20202;-93
2023/04/09 04:13:32;;;;;;;0.30;0.30;;;;;;;;;;7397650;19;20165;-92
2023/04/09 04:15:59;;;;;;;0.70;0.70;;;;;;;;;;7395700;19;20173;-93
2023/04/09 04:18:25;;;;;;;0.30;0.30;;;;;;;;;;7406331;19;20143;-95
2023/04/09 04:20:52;;;;;;;0.20;0.20;;;;;;;;;;7408458;19;20605;-93
2023/04/09 04:23:19;;;;;;;0.23;0.23;;;;;;;;;;7402958;19;20149;-92
2023/04/09 04:25:46;;;;;;;0.40;0.40;;;;;;;;;;7401338;19;20645;-94
2023/04/09 04:28:13;;;;;;;0.40;0.40;;;;;;;;;;7411569;19;20161;-92
2023/04/09 04:30:43;;;;;;;0.40;0.40;;;;;;;;;;7413602;19;20141;-93
2023/04/09 04:33:09;;;;;;;0.43;0.43;;;;;;;;;;7421993;19;20137;-93
2023/04/09 04:35:36;;;;;;;0.40;0.40;;;;;;;;;;7412405;19;20141;-92
2023/04/09 04:38:03;;;;;;;0.20;0.20;;;;;;;;;;7410716;19;20144;-92
2023/04/09 04:40:29;;;;;;;0.37;0.37;;;;;;;;;;7413051;19;20151;-93
2023/04/09 04:42:56;;;;;;;0.30;0.30;;;;;;;;;;7404701;19;20158;-92
2023/04/09 04:45:23;;;;;;;0.30;0.30;;;;;;;;;;7395372;19;20160;-92
2023/04/09 04:47:49;;;;;;;0.30;0.30;;;;;;;;;;7396415;19;20601;-92
2023/04/09 04:50:16;;;;;;;0.40;0.40;;;;;;;;;;7394535;19;20213;-91
2023/04/09 04:52:43;;;;;;;0.27;0.27;;;;;;;;;;7396944;19;20140;-93
2023/04/09 04:55:10;;;;;;;0.93;0.93;;;;;;;;;;7393980;19;20165;-92
2023/04/09 04:57:36;;;;;;;0.20;0.20;;;;;;;;;;7395778;19;20157;-92
2023/04/09 05:00:03;;;;;;;0.20;0.20;;;;;;;;;;7394204;19;20150;-92
2023/04/09 05:02:30;;;;;;;0.70;0.70;;;;;;;;;;7394802;19;20129;-92
2023/04/09 05:04:57;;;;;;;0.30;0.30;;;;;;;;;;7392439;19;20145;-91
2023/04/09 05:07:23;;;;;;;0.40;0.40;;;;;;;;;;7393655;19;20140;-93
2023/04/09 05:09:50;;;;;;;0.30;0.30;;;;;;;;;;7395372;19;20165;-91
2023/04/09 05:12:17;;;;;;;1.60;0.87;;;;;;;;;;7393419;19;20219;-91
2023/04/09 05:14:43;;;;;;;0.30;0.30;;;;;;;;;;7394672;19;20141;-92
2023/04/09 05:17:10;;;;;;;0.20;0.20;;;;;;;;;;7395622;19;20141;-91
2023/04/09 05:19:37;;;;;;;0.20;0.20;;;;;;;;;;7408825;19;20157;-94
2023/04/09 05:22:03;;;;;;;5.93;0.70;;;;;;;;;;7410120;19;20141;-92
2023/04/09 05:24:30;;;;;;;0.30;0.30;;;;;;;;;;7408147;19;20139;-92
2023/04/09 05:26:56;;;;;;;0.97;0.97;;;;;;;;;;7406681;19;20153;-92
2023/04/09 05:29:23;;;;;;;0.70;0.70;;;;;;;;;;7404093;19;20161;-92
2023/04/09 05:31:50;;;;;;;0.20;0.20;;;;;;;;;;7395208;19;20176;-92
2023/04/09 05:34:17;;;;;;;0.20;0.20;;;;;;;;;;7394556;19;20516;-91
2023/04/09 05:36:43;;;;;;;1.60;0.77;;;;;;;;;;7394656;19;20118;-91
2023/04/09 05:39:10;;;;;;;1.00;1.00;;;;;;;;;;7393150;19;20161;-91
2023/04/09 05:41:37;;;;;;;0.90;0.90;;;;;;;;;;7393416;19;20173;-93
2023/04/09 05:44:04;;;;;;;0.47;0.47;;;;;;;;;;7392358;19;20641;-91
2023/04/09 05:46:31;;;;;;;0.20;0.20;;;;;;;;;;7391908;19;20137;-92
2023/04/09 05:48:57;;;;;;;0.83;0.83;;;;;;;;;;7391743;19;20130;-92
2023/04/09 05:51:24;;;;;;;1.80;1.63;;;;;;;;;;7391289;19;20156;-91
2023/04/09 05:53:51;;;;;;;1.63;1.53;;;;;;;;;;7394130;19;20250;-91
2023/04/09 05:56:18;;;;;;;1.87;0.97;;;;;;;;;;7395870;19;20145;-91
2023/04/09 05:58:45;;;;;;;2.47;2.30;;;;;;;;;;7393651;19;20605;-91
2023/04/09 06:01:11;;;;;;;1.80;1.70;;;;;;;;;;7391971;19;20164;-92
2023/04/09 06:03:38;;;;;;;1.37;1.27;;;;;;;;;;7393635;19;20134;-91
2023/04/09 06:06:05;;;;;;;0.77;0.77;;;;;;;;;;7391453;19;20137;-92
2023/04/09 06:08:32;;;;;;;1.60;1.43;;;;;;;;;;7390710;19;20141;-93
2023/04/09 06:10:58;;;;;;;1.73;1.63;;;;;;;;;;7391504;19;20149;-91
2023/04/09 06:13:25;;;;;;;2.03;1.67;;;;;;;;;;7391974;19;20133;-92
2023/04/09 06:15:52;;;;;;;0.90;0.90;;;;;;;;;;7391106;19;20136;-93
2023/04/09 06:18:18;;;;;;;3.70;1.03;;;;;;;;;;7392491;19;20141;-92
2023/04/09 06:20:45;;;;;;;0.30;0.30;;;;;;;;;;7390884;19;20168;-92
2023/04/09 06:23:12;;;;;;;1.70;1.60;;;;;;;;;;7390558;19;20166;-91
2023/04/09 06:25:38;;;;;;;1.03;1.03;;;;;;;;;;7391998;19;20136;-92
2023/04/09 06:28:05;;;;;;;1.47;1.37;;;;;;;;;;7390209;19;20133;-92
2023/04/09 06:30:32;;;;;;;1.90;0.60;;;;;;;;;;7390010;19;20172;-92
2023/04/09 06:32:58;;;;;;;1.47;1.37;;;;;;;;;;7391483;19;20164;-92
2023/04/09 06:35:25;;;;;;;0.97;0.97;;;;;;;;;;7390952;19;20133;-92
2023/04/09 06:37:52;;;;;;;0.73;0.60;;;;;;;;;;7391248;19;20137;-92
2023/04/09 06:40:19;;;;;;;1.27;1.23;;;;;;;;;;7385779;19;20432;-92
2023/04/09 06:42:48;;;;;;;1.07;1.07;;;;;;;;;;7389717;19;20129;-90
2023/04/09 06:45:15;;;;;;;0.50;0.50;;;;;;;;;;7391699;19;20140;-91
2023/04/09 06:47:42;;;;;;;0.87;0.80;;;;;;;;;;7389272;19;20129;-90
2023/04/09 06:50:09;;;;;;;0.60;0.60;;;;;;;;;;7385859;19;20189;-89
2023/04/09 06:52:35;;;;;;;0.60;0.60;;;;;;;;;;7388114;19;20637;-91
2023/04/09 06:55:02;;;;;;;0.97;0.83;;;;;;;;;;7390685;19;20141;-92
2023/04/09 06:57:29;;;;;;;0.70;0.70;;;;;;;;;;7388293;19;20141;-91
2023/04/09 06:59:56;;;;;;;0.70;0.70;;;;;;;;;;7390291;19;20137;-90
2023/04/09 07:02:22;;;;;;;0.50;0.50;;;;;;;;;;7388524;19;20145;-92
2023/04/09 07:04:49;;;;;;;0.77;0.77;;;;;;;;;;7392540;19;20170;-92
2023/04/09 07:07:16;;;;;;;0.60;0.60;;;;;;;;;;7393153;19;20157;-91
2023/04/09 07:09:45;;;;;;;0.43;0.43;;;;;;;;;;7399373;19;20133;-88
2023/04/09 07:12:28;;;;;;;1.30;1.20;;;;;;;;;;7394928;19;20193;-91
2023/04/09 07:15:02;;;;;;;2.13;1.83;;;;;;;;;;7397225;19;20158;-90
2023/04/09 07:17:33;;;;;;;0.80;0.80;;;;;;;;;;7397874;19;20212;-91
2023/04/09 07:20:00;;;;;;;1.20;1.20;;;;;;;;;;7397495;19;20188;-90
2023/04/09 07:22:27;;;;;;;0.57;0.57;;;;;;;;;;7397399;19;20164;-90
2023/04/09 07:24:54;;;;;;;0.83;0.83;;;;;;;;;;7395029;19;20145;-90
2023/04/09 07:27:24;;;;;;;1.70;1.60;;;;;;;;;;7397545;19;20159;-90
2023/04/09 07:29:54;;;;;;;2.73;0.93;;;;;;;;;;7397560;19;20238;-90
2023/04/09 07:32:25;;;;;;;0.93;0.93;;;;;;;;;;7392590;19;20181;-92
2023/04/09 07:34:53;;;;;;;1.00;1.00;;;;;;;;;;7393275;19;20141;-89
2023/04/09 07:37:20;;;;;;;1.77;1.47;;;;;;;;;;7392845;19;20161;-89
2023/04/09 07:39:48;;;;;;;1.63;1.30;;;;;;;;;;7394402;19;20772;-90
2023/04/09 07:42:14;;;;;;;0.53;0.53;;;;;;;;;;7393946;19;20149;-91
2023/04/09 07:44:42;;;;;;;0.93;0.73;;;;;;;;;;7396879;19;20133;-91
2023/04/09 07:47:10;;;;;;;1.53;1.43;;;;;;;;;;7397499;19;20148;-89
2023/04/09 07:49:39;;;;;;;1.50;1.40;;;;;;;;;;7393057;19;20137;-91
2023/04/09 07:52:19;;;;;;;1.30;1.30;;;;;;;;;;7395286;19;20148;-91
2023/04/09 07:54:46;;;;;;;1.67;1.47;;;;;;;;;;7392048;19;20159;-91
2023/04/09 07:57:13;;;;;;;1.03;1.03;;;;;;;;;;7402443;19;20133;-94
2023/04/09 07:59:42;;;;;;;3.53;2.47;;;;;;;;;;7404258;19;20144;-94
2023/04/09 08:02:09;;;;;;;0.40;0.40;;;;;;;;;;7394029;19;20168;-95
2023/04/09 08:04:40;;;;;;;1.07;1.00;;;;;;;;;;7412552;19;20256;-90
2023/04/09 08:07:07;;;;;;;1.20;1.00;;;;;;;;;;7395960;19;20136;-91
2023/04/09 08:09:33;;;;;;;0.77;0.63;;;;;;;;;;7392869;19;20136;-91
2023/04/09 08:12:00;;;;;;;1.87;1.77;;;;;;;;;;7395296;19;20515;-90
2023/04/09 08:14:26;;;;;;;1.00;1.00;;;;;;;;;;7397149;19;20176;-90
2023/04/09 08:16:53;;;;;;;0.70;0.70;;;;;;;;;;7394440;19;20175;-90
2023/04/09 08:19:20;;;;;;;0.67;0.67;;;;;;;;;;7392889;19;20644;-88
2023/04/09 08:21:50;;;;;;;3.57;2.03;;;;;;;;;;7394516;19;20169;-90
2023/04/09 08:24:17;;;;;;;5.20;1.60;;;;;;;;;;7396918;19;20168;-90
2023/04/09 08:26:44;;;;;;;2.07;1.97;;;;;;;;;;7394007;19;20145;-90
2023/04/09 08:29:11;;;;;;;2.00;1.67;;;;;;;;;;7395977;19;20145;-90
2023/04/09 08:31:38;;;;;;;1.73;1.33;;;;;;;;;;7394435;19;20645;-90
2023/04/09 08:34:05;;;;;;;1.27;0.93;;;;;;;;;;7390702;19;20141;-90
2023/04/09 08:36:34;;;;;;;1.47;1.20;;;;;;;;;;7395751;19;20169;-89
2023/04/09 08:39:01;;;;;;;1.60;1.60;;;;;;;;;;7394132;19;20133;-88
2023/04/09 08:41:28;;;;;;;1.03;1.03;;;;;;;;;;7395636;19;20148;-90
2023/04/09 08:43:56;;;;;;;0.93;0.93;;;;;;;;;;7395473;19;20282;-90
2023/04/09 08:46:25;;;;;;;0.80;0.80;;;;;;;;;;7396269;19;20133;-89
2023/04/09 08:48:52;;;;;;;1.40;1.30;;;;;;;;;;7393451;19;20141;-89
2023/04/09 08:51:21;;;;;;;0.80;0.80;;;;;;;;;;7395763;19;20526;-90
2023/04/09 08:53:52;;;;;;;1.27;1.17;;;;;;;;;;7392563;19;20144;-89
2023/04/09 08:56:20;;;;;;;0.73;0.73;;;;;;;;;;7395762;19;20141;-90
2023/04/09 08:58:47;;;;;;;1.03;1.03;;;;;;;;;;7396330;19;20565;-89
2023/04/09 09:01:28;;;;;;;1.30;1.20;;;;;;;;;;7395136;19;20149;-90
2023/04/09 09:04:03;;;;;;;1.40;1.37;;;;;;;;;;7389823;19;20144;-90
2023/04/09 09:06:34;;;;;;;1.17;1.10;;;;;;;;;;7396072;19;20199;-89
2023/04/09 09:09:03;;;;;;;0.80;0.80;;;;;;;;;;7392650;19;20178;-90
2023/04/09 09:11:30;;;;;;;1.43;1.33;;;;;;;;;;7392439;19;20188;-89
2023/04/09 09:13:59;;;;;;;1.07;1.07;;;;;;;;;;7392942;19;20505;-89
2023/04/09 09:16:26;;;;;;;0.53;0.53;;;;;;;;;;7395608;19;20177;-90
2023/04/09 09:18:54;;;;;;;0.93;0.90;;;;;;;;;;7396140;19;20133;-89
2023/04/09 09:21:22;;;;;;;0.80;0.80;;;;;;;;;;7394455;19;20649;-88
2023/04/09 09:23:49;;;;;;;1.17;1.17;;;;;;;;;;7396605;19;20149;-89
2023/04/09 09:26:17;;;;;;;1.33;1.27;;;;;;;;;;7395063;19;20137;-90
2023/04/09 09:28:47;;;;;;;1.60;0.73;;;;;;;;;;7395458;19;20152;-89
2023/04/09 09:31:15;;;;;;;1.03;1.00;;;;;;;;;;7393066;19;20182;-89
2023/04/09 09:33:42;;;;;;;0.97;0.97;;;;;;;;;;7395072;19;20137;-88
2023/04/09 09:36:08;;;;;;;1.27;1.20;;;;;;;;;;7394983;19;20493;-90
2023/04/09 09:38:52;;;;;;;1.63;1.27;;;;;;;;;;7395677;19;20136;-89
2023/04/09 09:41:19;;;;;;;1.30;1.30;;;;;;;;;;7394419;19;20173;-88
2023/04/09 09:43:46;;;;;;;0.53;0.50;;;;;;;;;;7396332;19;20151;-89
2023/04/09 09:46:14;;;;;;;1.37;1.27;;;;;;;;;;7395903;19;20776;-89
2023/04/09 09:48:41;;;;;;;0.70;0.70;;;;;;;;;;7394315;19;20212;-89
2023/04/09 09:51:10;;;;;;;1.47;1.37;;;;;;;;;;7394791;19;20152;-88
2023/04/09 09:53:38;;;;;;;1.37;1.27;;;;;;;;;;7394724;19;20557;-90
2023/04/09 09:56:06;;;;;;;1.17;1.17;;;;;;;;;;7395822;19;20164;-89
2023/04/09 09:58:39;;;;;;;0.77;0.77;;;;;;;;;;7396974;19;20120;-89
2023/04/09 10:01:12;;;;;;;2.67;1.77;;;;;;;;;;7393318;19;20183;-89
2023/04/09 10:03:39;;;;;;;1.10;0.70;;;;;;;;;;7392833;19;20121;-87
2023/04/09 10:06:06;;;;;;;0.67;0.67;;;;;;;;;;7396310;19;20145;-88
2023/04/09 10:08:34;;;;;;;0.83;0.83;;;;;;;;;;7396009;19;20137;-89
2023/04/09 10:11:04;;;;;;;0.83;0.83;;;;;;;;;;7394718;19;20181;-88
2023/04/09 10:13:34;;;;;;;0.77;0.77;;;;;;;;;;7393595;19;20124;-89
2023/04/09 10:16:01;;;;;;;1.23;1.00;;;;;;;;;;7395438;19;20160;-88
2023/04/09 10:18:32;;;;;;;0.80;0.80;;;;;;;;;;7395964;19;20633;-89
2023/04/09 10:21:30;;;;;;;0.87;0.87;;;;;;;;;;7395783;19;20180;-89
2023/04/09 10:23:57;;;;;;;2.77;0.97;;;;;;;;;;7394233;19;20172;-88
2023/04/09 10:26:26;;;;;;;0.70;0.70;;;;;;;;;;7394707;19;20137;-89
2023/04/09 10:29:13;;;;;;;0.60;0.60;;;;;;;;;;7394053;19;20157;-89
2023/04/09 10:32:02;;;;;;;0.80;0.80;;;;;;;;;;7394299;19;20179;-88
2023/04/09 10:34:34;;;;;;;1.37;1.27;;;;;;;;;;7393994;19;20172;-88
2023/04/09 10:37:01;;;;;;;1.60;1.30;;;;;;;;;;7394054;19;20149;-88
2023/04/09 10:39:30;;;;;;;0.67;0.67;;;;;;;;;;7395121;19;20161;-88
2023/04/09 10:41:59;;;;;;;1.23;1.20;;;;;;;;;;7396001;19;20568;-88
2023/04/09 10:44:27;;;;;;;0.73;0.73;;;;;;;;;;7396163;19;20141;-87
2023/04/09 10:46:54;;;;;;;1.00;1.00;;;;;;;;;;7397573;19;20169;-88
2023/04/09 10:49:21;;;;;;;0.83;0.83;;;;;;;;;;7396194;19;20148;-87
2023/04/09 10:52:12;;;;;;;0.50;0.50;;;;;;;;;;7396606;19;20156;-88
2023/04/09 10:54:47;;;;;;;1.03;0.93;;;;;;;;;;7396178;19;20177;-87
2023/04/09 10:57:16;;;;;;;0.53;0.53;;;;;;;;;;7397346;19;20144;-88
2023/04/09 10:59:47;;;;;;;0.33;0.33;;;;;;;;;;7395429;19;20439;-87
2023/04/09 11:02:53;;;;;;;0.80;0.80;;;;;;;;;;7390236;19;20189;-87
2023/04/09 11:05:23;;;;;;;0.77;0.77;;;;;;;;;;7391972;19;20149;-87
2023/04/09 11:08:12;;;;;;;0.50;0.50;;;;;;;;;;7401023;19;20136;-87
2023/04/09 11:10:41;;;;;;;0.90;0.90;;;;;;;;;;7423164;19;20168;-87
2023/04/09 11:13:12;;;;;;;0.77;0.77;;;;;;;;;;7421487;19;20156;-86
2023/04/09 11:15:39;;;;;;;0.70;0.70;;;;;;;;;;7417388;19;20144;-87
2023/04/09 11:18:08;;;;;;;0.87;0.87;;;;;;;;;;7403970;19;20137;-87
2023/04/09 11:20:35;;;;;;;0.93;0.93;;;;;;;;;;7403336;19;20189;-87
2023/04/09 11:23:02;;;;;;;0.50;0.50;;;;;;;;;;7423260;19;20130;-86
2023/04/09 11:25:32;;;;;;;0.80;0.80;;;;;;;;;;7425401;19;20158;-85
2023/04/09 11:28:02;;;;;;;0.70;0.57;;;;;;;;;;7409592;19;20141;-86
2023/04/09 11:30:29;;;;;;;0.88;0.88;;;;;;;;;;7397523;19;20626;-85
2023/04/09 11:32:56;;;;;;;0.70;0.70;;;;;;;;;;7399144;19;20169;-86
2023/04/09 11:35:23;;;;;;;0.80;0.80;;;;;;;;;;7404887;19;20141;-86
2023/04/09 11:37:51;;;;;;;1.40;1.10;;;;;;;;;;7395774;19;20617;-86
2023/04/09 11:40:22;;;;;;;0.73;0.73;;;;;;;;;;7396304;19;20209;-86
2023/04/09 11:42:50;;;;;;;0.75;0.75;;;;;;;;;;7391673;19;20133;-86
2023/04/09 11:45:18;;;;;;;0.80;0.80;;;;;;;;;;7390735;19;20146;-86
2023/04/09 11:47:46;;;;;;;2.17;0.93;;;;;;;;;;7396935;19;20121;-86
2023/04/09 11:50:16;;;;;;;0.63;0.63;;;;;;;;;;7390560;19;20144;-86
2023/04/09 11:52:44;;;;;;;0.57;0.57;;;;;;;;;;7395272;19;20160;-86
2023/04/09 11:55:11;;;;;;;0.73;0.73;;;;;;;;;;7403342;19;20133;-86
2023/04/09 11:57:45;;;;;;;0.52;0.52;;;;;;;;;;7403757;19;20141;-86
2023/04/09 12:00:16;;;;;;;0.60;0.60;;;;;;;;;;7402631;19;20129;-86
2023/04/09 12:02:47;;;;;;;0.50;0.50;;;;;;;;;;7402132;19;20129;-86
2023/04/09 12:05:24;;;;;;;0.60;0.60;;;;;;;;;;7404518;19;20137;-86
2023/04/09 12:07:55;;;;;;;0.70;0.70;;;;;;;;;;7401713;19;20160;-87
2023/04/09 12:10:26;;;;;;;0.70;0.70;;;;;;;;;;7400941;19;20141;-86
2023/04/09 12:12:52;;;;;;;1.00;0.75;;;;;;;;;;7401505;19;20526;-86
2023/04/09 12:15:21;;;;;;;1.10;1.02;;;;;;;;;;7404197;19;20148;-86
2023/04/09 12:17:49;;;;;;;0.88;0.88;;;;;;;;;;7396429;19;20612;-86
2023/04/09 12:20:46;;;;;;;0.68;0.68;;;;;;;;;;7400996;19;20145;-86
2023/04/09 12:23:14;;;;;;;1.27;0.70;;;;;;;;;;7400356;19;20157;-86
2023/04/09 12:25:42;;;;;;;0.65;0.65;;;;;;;;;;7398060;19;20635;-86
2023/04/09 12:28:15;;;;;;;0.70;0.70;;;;;;;;;;7398806;19;20373;-86
2023/04/09 12:30:42;;;;;;;0.60;0.60;;;;;;;;;;7397600;19;20157;-87
2023/04/09 12:33:09;;;;;;;1.00;0.68;;;;;;;;;;7396369;19;20133;-86
2023/04/09 12:35:36;;;;;;;0.75;0.75;;;;;;;;;;7399838;19;20145;-86
2023/04/09 12:38:04;;;;;;;0.50;0.50;;;;;;;;;;7397727;19;20629;-86
2023/04/09 12:40:30;;;;;;;0.65;0.55;;;;;;;;;;7400553;19;20173;-86
2023/04/09 12:42:57;;;;;;;0.70;0.70;;;;;;;;;;7401534;19;20140;-87
2023/04/09 12:45:24;;;;;;;0.60;0.60;;;;;;;;;;7401235;19;20518;-86
2023/04/09 12:47:50;;;;;;;0.57;0.57;;;;;;;;;;7399639;19;20129;-86
2023/04/09 12:50:17;;;;;;;0.80;0.80;;;;;;;;;;7399055;19;20144;-86
2023/04/09 12:52:44;;;;;;;0.63;0.63;;;;;;;;;;7400112;19;20140;-86
2023/04/09 12:55:11;;;;;;;0.50;0.50;;;;;;;;;;7402398;19;20160;-86
2023/04/09 12:57:41;;;;;;;0.30;0.30;;;;;;;;;;7400578;19;20225;-86
2023/04/09 13:00:08;;;;;;;1.15;0.80;;;;;;;;;;7398851;19;20157;-86
2023/04/09 13:02:35;;;;;;;0.50;0.50;;;;;;;;;;7399462;19;20180;-86
2023/04/09 13:05:03;;;;;;;0.60;0.60;;;;;;;;;;7392979;19;20145;-86
2023/04/09 13:07:29;;;;;;;0.80;0.80;;;;;;;;;;7397876;19;20153;-86
2023/04/09 13:09:56;;;;;;;0.50;0.50;;;;;;;;;;7401461;19;20145;-86
2023/04/09 13:12:23;;;;;;;0.70;0.65;;;;;;;;;;7398164;19;20633;-86
2023/04/09 13:14:52;;;;;;;0.75;0.73;;;;;;;;;;7399469;19;20149;-86
2023/04/09 13:17:19;;;;;;;0.70;0.70;;;;;;;;;;7398737;19;20565;-86
2023/04/09 13:19:46;;;;;;;0.70;0.70;;;;;;;;;;7398781;19;20149;-86
2023/04/09 13:22:13;;;;;;;0.68;0.68;;;;;;;;;;7398769;19;20164;-87
2023/04/09 13:24:41;;;;;;;0.52;0.52;;;;;;;;;;7400688;19;20145;-86
2023/04/09 13:27:09;;;;;;;0.65;0.65;;;;;;;;;;7399366;19;20148;-86
2023/04/09 13:29:37;;;;;;;0.80;0.80;;;;;;;;;;7398289;19;20152;-86
2023/04/09 13:32:06;;;;;;;0.50;0.50;;;;;;;;;;7397421;19;20168;-86
2023/04/09 13:34:33;;;;;;;0.75;0.75;;;;;;;;;;7399481;19;20140;-86
2023/04/09 13:37:03;;;;;;;0.63;0.63;;;;;;;;;;7397428;19;20181;-86
2023/04/09 13:39:30;;;;;;;0.45;0.45;;;;;;;;;;7399405;19;20152;-86
2023/04/09 13:41:57;;;;;;;0.73;0.73;;;;;;;;;;7397998;19;20176;-87
2023/04/09 13:44:24;;;;;;;1.08;0.98;;;;;;;;;;7398378;19;20145;-87
2023/04/09 13:46:50;;;;;;;0.70;0.70;;;;;;;;;;7395929;19;20161;-86
2023/04/09 13:49:17;;;;;;;0.60;0.60;;;;;;;;;;7398695;19;20153;-86
2023/04/09 13:51:44;;;;;;;0.80;0.80;;;;;;;;;;7396663;19;20342;-86
2023/04/09 13:54:10;;;;;;;0.60;0.60;;;;;;;;;;7396861;19;20140;-86
2023/04/09 13:56:38;;;;;;;0.60;0.60;;;;;;;;;;7398036;19;20467;-86
2023/04/09 13:59:05;;;;;;;0.40;0.40;;;;;;;;;;7398729;19;20145;-86
2023/04/09 14:01:32;;;;;;;0.85;0.85;;;;;;;;;;7408621;19;20177;-86
2023/04/09 14:03:59;;;;;;;0.60;0.60;;;;;;;;;;7420604;19;20146;-86
2023/04/09 16:45:38;;;;;;;0.30;0.30;;;;;;;;;;7403201;19;20153;-89
2023/04/09 16:48:10;;;;;;;0.73;0.73;;;;;;;;;;7395101;19;20137;-89
2023/04/09 16:50:39;;;;;;;0.40;0.40;;;;;;;;;;7394901;19;20168;-89
2023/04/09 17:00:39;;;;;;;0.40;0.40;;;;;;;;;;7395209;19;20612;-89
2023/04/09 17:03:11;;;;;;;0.45;0.45;;;;;;;;;;7388137;19;20168;-90
2023/04/09 17:06:48;;;;;;;0.40;0.40;;;;;;;;;;7394352;19;20693;-90
2023/04/09 17:10:21;;;;;;;0.40;0.40;;;;;;;;;;7396682;19;20256;-91
2023/04/09 17:13:10;;;;;;;0.40;0.40;;;;;;;;;;7396137;19;20189;-88
2023/04/09 17:15:38;;;;;;;0.53;0.47;;;;;;;;;;7397434;19;20133;-92
2023/04/09 17:18:25;;;;;;;0.67;0.67;;;;;;;;;;7401437;19;20141;-93
2023/04/09 17:20:52;;;;;;;0.70;0.70;;;;;;;;;;7390343;19;20169;-92
2023/04/09 17:23:20;;;;;;;1.27;0.60;;;;;;;;;;7391182;19;20144;-92
2023/04/09 17:25:50;;;;;;;0.60;0.60;;;;;;;;;;7394127;19;20136;-91
2023/04/09 17:28:17;;;;;;;0.57;0.57;;;;;;;;;;7391712;19;20141;-91
2023/04/09 17:30:47;;;;;;;0.60;0.60;;;;;;;;;;7390482;19;20179;-92
2023/04/09 17:33:14;;;;;;;0.40;0.40;;;;;;;;;;7395120;19;20680;-91
2023/04/09 17:35:58;;;;;;;;;;;;;;;;;;;;;
2023/04/09 17:39:06;;;;;;;0.47;0.47;;;;;;;;;;7393026;19;20157;-92
2023/04/09 17:41:44;;;;;;;0.63;0.63;;;;;;;;;;7392604;19;20168;-90